CheckWX is a tool to help pilots better visualize weather data.  It is not intended as a substitute for an official pre-flight weather briefing.

04:29:54 UTC

KRDU METAR
Raleigh-Durham International Airport
Morrisville, North Carolina, USA
Current

39 mins ago

KRDU 270351Z 00000KT 10SM OVC240 22/18 A3014 RMK AO2 SLP201 T02220183
Observed
Jun-27 @ 03:51 UTC
Visibility
10 SM
Flight Rules
VFR
Cloud Levels
  • Overcast at 24,000' AGL
Temperature
22°C / 72°F
Dewpoint
18°C / 64°F
Humidity
78%
Altimeter
30.14" Hg
Pressure
1020.62 hPa
Previous

2 hours ago

KRDU 270251Z 00000KT 10SM OVC250 23/18 A3013 RMK AO2 SLP199 T02280183 53002
Observed
Jun-27 @ 02:51 UTC
Visibility
10 SM
Flight Rules
VFR
Cloud Levels
  • Overcast at 25,000' AGL
Temperature
23°C / 73°F
Dewpoint
18°C / 64°F
Humidity
74%
Altimeter
30.13" Hg
Pressure
1020.32 hPa
Previous

3 hours ago

KRDU 270151Z 00000KT 10SM OVC250 24/18 A3012 RMK AO2 SLP196 T02440183
Observed
Jun-27 @ 01:51 UTC
Visibility
10 SM
Flight Rules
VFR
Cloud Levels
  • Overcast at 25,000' AGL
Temperature
24°C / 75°F
Dewpoint
18°C / 64°F
Humidity
69%
Altimeter
30.12" Hg
Pressure
1020.02 hPa